createdAt,value
2023-04-20T00:02:17.139Z,14.10
2023-04-20T00:07:39.243Z,14.15
2023-04-20T00:13:01.035Z,14.05
2023-04-20T00:18:22.866Z,19.55
2023-04-20T00:23:44.777Z,22.80
2023-04-20T00:29:06.733Z,20.08
2023-04-20T00:34:28.616Z,12.82
2023-04-20T00:39:50.510Z,11.32
2023-04-20T00:45:12.691Z,12.00
2023-04-20T00:50:35.042Z,11.18
2023-04-20T00:55:57.028Z,10.02
2023-04-20T01:01:19.181Z,10.38
2023-04-20T01:06:41.109Z,10.48
2023-04-20T01:12:03.046Z,10.05
2023-04-20T01:17:24.962Z,18.90
2023-04-20T01:22:48.678Z,27.70
2023-04-20T01:28:11.189Z,27.38
2023-04-20T01:33:33.889Z,22.45
2023-04-20T01:38:56.475Z,12.18
2023-04-20T01:44:18.350Z,9.55
2023-04-20T01:49:40.276Z,8.80
2023-04-20T01:55:02.239Z,9.05
2023-04-20T02:00:24.098Z,8.80
2023-04-20T02:05:45.958Z,8.32
2023-04-20T02:11:07.954Z,8.35
2023-04-20T02:16:29.824Z,9.20
2023-04-20T02:21:51.706Z,8.40
2023-04-20T02:27:13.565Z,8.43
2023-04-20T02:32:35.731Z,9.00
2023-04-20T02:37:57.604Z,8.93
2023-04-20T02:43:19.644Z,8.68
2023-04-20T02:48:41.486Z,8.95
2023-04-20T02:54:03.366Z,9.13
2023-04-20T02:59:25.307Z,8.75
2023-04-20T03:04:47.279Z,8.70
2023-04-20T03:10:09.738Z,9.50
2023-04-20T03:15:32.469Z,9.05
2023-04-20T03:20:54.422Z,9.15
2023-04-20T03:26:16.439Z,9.05
2023-04-20T03:31:38.481Z,9.65
2023-04-20T03:37:00.389Z,10.00
2023-04-20T03:42:22.346Z,8.30
2023-04-20T03:47:44.347Z,9.05
2023-04-20T03:53:06.226Z,8.98
2023-04-20T03:58:28.097Z,9.43
2023-04-20T04:03:50.212Z,10.15
2023-04-20T04:09:12.206Z,9.80
2023-04-20T04:14:34.900Z,10.25
2023-04-20T04:19:56.753Z,9.98
2023-04-20T04:25:18.641Z,10.13
2023-04-20T04:30:40.807Z,9.48
2023-04-20T04:36:02.708Z,10.25
2023-04-20T04:41:24.551Z,9.88
2023-04-20T04:46:46.391Z,10.10
2023-04-20T04:52:09.819Z,10.35
2023-04-20T04:57:31.626Z,11.25
2023-04-20T05:02:53.601Z,10.45
2023-04-20T05:08:15.493Z,10.18
2023-04-20T05:13:37.328Z,10.10
2023-04-20T05:18:59.196Z,9.98
2023-04-20T05:24:21.062Z,9.57
2023-04-20T05:29:42.892Z,8.52
2023-04-20T05:35:05.298Z,8.68
2023-04-20T05:40:27.212Z,8.30
2023-04-20T05:45:49.311Z,8.27
2023-04-20T05:51:11.244Z,9.40
2023-04-20T05:56:33.084Z,7.53
2023-04-20T06:01:55.022Z,7.30
2023-04-20T06:07:16.885Z,6.70
2023-04-20T06:12:38.736Z,6.70
2023-04-20T06:18:00.580Z,6.45
2023-04-20T06:23:22.435Z,5.43
2023-04-20T06:28:44.266Z,5.20
2023-04-20T06:34:06.076Z,5.40
2023-04-20T06:39:27.948Z,4.97
2023-04-20T06:44:49.778Z,5.55
2023-04-20T06:50:11.809Z,5.38
2023-04-20T06:55:33.637Z,4.50
2023-04-20T07:00:55.427Z,4.03
2023-04-20T07:06:17.227Z,5.00
2023-04-20T07:11:39.068Z,4.68
2023-04-20T07:17:00.897Z,3.40
2023-04-20T07:22:22.909Z,4.45
2023-04-20T07:27:44.776Z,4.03
2023-04-20T07:33:06.640Z,3.70
2023-04-20T07:38:28.535Z,3.92
2023-04-20T07:43:50.350Z,3.80
2023-04-20T07:49:12.156Z,3.58
2023-04-20T07:54:34.037Z,3.88
2023-04-20T07:59:55.935Z,3.45
2023-04-20T08:05:18.176Z,3.83
2023-04-20T08:10:40.207Z,4.63
2023-04-20T08:16:02.062Z,3.50
2023-04-20T08:21:25.488Z,3.75
2023-04-20T08:26:48.104Z,4.38
2023-04-20T08:32:10.083Z,3.72
2023-04-20T08:37:33.098Z,4.00
2023-04-20T08:42:55.026Z,3.20
2023-04-20T08:48:17.481Z,4.07
2023-04-20T08:53:39.316Z,3.35
2023-04-20T08:59:02.189Z,2.95
2023-04-20T09:04:26.658Z,3.28
2023-04-20T09:09:59.192Z,3.08
2023-04-20T09:15:29.601Z,2.67
2023-04-20T09:20:51.435Z,3.05
2023-04-20T09:26:18.169Z,2.40
2023-04-20T09:31:40.059Z,2.58
2023-04-20T09:37:01.965Z,3.10
2023-04-20T09:42:27.960Z,2.70
2023-04-20T09:47:50.460Z,2.60
2023-04-20T09:53:13.513Z,3.15
2023-04-20T09:58:36.564Z,2.45
2023-04-20T10:04:00.278Z,2.45
2023-04-20T10:09:25.017Z,2.28
2023-04-20T10:14:55.712Z,2.28
2023-04-20T10:20:26.566Z,2.08
2023-04-20T10:25:59.474Z,2.38
2023-04-20T10:31:21.351Z,2.72
2023-04-20T10:36:43.199Z,2.30
2023-04-20T10:42:05.289Z,2.00
2023-04-20T10:47:31.540Z,2.30
2023-04-20T10:52:53.398Z,2.28
2023-04-20T10:58:22.943Z,2.00
2023-04-20T11:03:50.322Z,2.38
2023-04-20T11:09:25.982Z,2.45
2023-04-20T11:14:55.918Z,2.30
2023-04-20T11:20:17.924Z,2.28
2023-04-20T11:25:49.341Z,2.70
2023-04-20T11:31:17.404Z,2.30
2023-04-20T11:36:39.366Z,2.50
2023-04-20T11:42:01.158Z,2.50
2023-04-20T11:47:23.058Z,2.50
2023-04-20T11:58:05.062Z,2.45
2023-04-20T12:03:27.251Z,2.38
2023-04-20T12:08:50.562Z,2.17
2023-04-20T12:14:12.481Z,2.42
2023-04-20T12:19:34.310Z,2.55
2023-04-20T12:24:56.128Z,3.22
2023-04-20T12:30:17.987Z,2.90
2023-04-20T12:35:39.922Z,2.88
2023-04-20T12:41:02.236Z,2.83
2023-04-20T12:46:24.183Z,2.45
2023-04-20T12:51:46.073Z,2.40
2023-04-20T12:57:07.874Z,3.63
2023-04-20T13:02:29.836Z,2.47
2023-04-20T13:07:52.031Z,2.60
2023-04-20T13:13:14.078Z,2.65
2023-04-20T13:18:35.962Z,2.55
2023-04-20T13:23:57.860Z,2.70
2023-04-20T13:29:19.896Z,2.70
2023-04-20T13:34:41.927Z,3.20
2023-04-20T13:40:04.057Z,2.83
2023-04-20T13:45:25.984Z,3.00
2023-04-20T13:50:47.801Z,2.85
2023-04-20T13:56:09.676Z,2.92
2023-04-20T14:01:31.683Z,3.25
2023-04-20T14:06:53.612Z,2.60
2023-04-20T14:12:16.800Z,2.60
2023-04-20T14:17:38.698Z,2.58
2023-04-20T14:23:00.572Z,2.78
2023-04-20T14:28:22.638Z,2.90
2023-04-20T14:33:44.509Z,2.97
2023-04-20T14:39:06.471Z,3.17
2023-04-20T14:44:28.319Z,3.50
2023-04-20T14:49:50.186Z,3.13
2023-04-20T14:55:12.302Z,3.30
2023-04-20T15:00:34.134Z,2.70
2023-04-20T15:06:01.550Z,3.50
2023-04-20T15:11:23.430Z,3.30
2023-04-20T15:16:45.268Z,3.53
2023-04-20T15:22:07.080Z,3.67
2023-04-20T15:27:28.925Z,3.60
2023-04-20T15:32:50.767Z,3.55
2023-04-20T15:38:12.649Z,3.83
2023-04-20T15:43:34.558Z,3.70
2023-04-20T15:48:56.493Z,4.35
2023-04-20T15:54:18.616Z,4.45
2023-04-20T15:59:40.615Z,3.63
2023-04-20T16:05:02.671Z,4.10
2023-04-20T16:10:24.884Z,4.25
2023-04-20T16:15:46.955Z,4.28
2023-04-20T16:21:08.873Z,3.80
2023-04-20T16:26:30.767Z,4.63
2023-04-20T16:31:52.687Z,4.72
2023-04-20T16:37:14.626Z,4.50
2023-04-20T16:42:36.578Z,4.70
2023-04-20T16:47:58.520Z,4.82
2023-04-20T16:53:20.389Z,4.88
2023-04-20T16:58:42.171Z,4.70
2023-04-20T17:04:04.054Z,4.57
2023-04-20T17:09:25.984Z,4.95
2023-04-20T17:14:47.862Z,5.03
2023-04-20T17:20:10.070Z,4.70
2023-04-20T17:25:31.978Z,6.40
2023-04-20T17:30:53.903Z,5.55
2023-04-20T17:36:15.718Z,5.00
2023-04-20T17:41:37.592Z,5.03
2023-04-20T17:46:59.483Z,5.60
2023-04-20T17:52:21.443Z,5.63
2023-04-20T17:57:43.267Z,5.47
2023-04-20T18:03:05.224Z,5.30
2023-04-20T18:08:27.231Z,5.35
2023-04-20T18:13:49.151Z,6.25
2023-04-20T18:19:10.972Z,6.25
2023-04-20T18:24:33.131Z,6.60
2023-04-20T18:29:55.201Z,6.35
2023-04-20T18:35:17.115Z,7.10
2023-04-20T18:40:39.329Z,7.00
2023-04-20T18:46:01.259Z,7.60
2023-04-20T18:51:23.085Z,7.20
2023-04-20T18:56:44.881Z,6.72
2023-04-20T19:02:07.039Z,8.27
2023-04-20T19:07:29.045Z,8.80
2023-04-20T19:12:50.869Z,9.35
2023-04-20T19:18:12.783Z,10.07
2023-04-20T19:23:34.638Z,9.73
2023-04-20T19:28:56.539Z,8.90
2023-04-20T19:34:18.663Z,9.38
2023-04-20T19:39:40.758Z,9.27
2023-04-20T19:45:02.583Z,10.10
2023-04-20T19:50:24.460Z,9.85
2023-04-20T19:55:46.306Z,9.98
2023-04-20T20:01:08.269Z,10.32
2023-04-20T20:06:30.160Z,9.43
2023-04-20T20:11:52.014Z,10.07
2023-04-20T20:17:14.051Z,9.75
2023-04-20T20:22:35.893Z,9.55
2023-04-20T20:27:57.832Z,9.93
2023-04-20T20:33:19.691Z,10.30
2023-04-20T20:38:41.559Z,10.75
2023-04-20T20:44:03.394Z,10.30
2023-04-20T20:49:25.241Z,10.70
2023-04-20T20:54:47.309Z,11.05
2023-04-20T21:00:09.764Z,11.00
2023-04-20T21:05:33.653Z,10.10
2023-04-20T21:10:56.994Z,11.23
2023-04-20T21:16:19.820Z,11.23
2023-04-20T21:21:41.781Z,11.27
2023-04-20T21:27:03.705Z,10.27
2023-04-20T21:32:25.759Z,10.73
2023-04-20T21:37:47.845Z,10.82
2023-04-20T21:43:09.803Z,10.38
2023-04-20T21:48:31.640Z,9.90
2023-04-20T21:53:53.492Z,9.63
2023-04-20T21:59:15.513Z,9.55
2023-04-20T22:04:37.660Z,10.45
2023-04-20T22:10:01.109Z,10.30
2023-04-20T22:15:23.252Z,10.20
2023-04-20T22:20:45.293Z,10.77
2023-04-20T22:26:07.215Z,9.88
2023-04-20T22:31:29.388Z,9.85
2023-04-20T22:36:51.299Z,9.00
2023-04-20T22:42:13.173Z,9.13
2023-04-20T22:47:35.035Z,8.77
2023-04-20T22:52:56.953Z,9.32
2023-04-20T22:58:18.838Z,9.95
2023-04-20T23:03:40.774Z,8.07
2023-04-20T23:09:02.743Z,8.40
2023-04-20T23:14:25.522Z,8.20
2023-04-20T23:19:47.362Z,8.88
2023-04-20T23:25:09.872Z,8.18
2023-04-20T23:30:31.971Z,7.93
2023-04-20T23:35:53.890Z,7.28
2023-04-20T23:41:15.803Z,8.43
2023-04-20T23:46:37.667Z,8.25
2023-04-20T23:51:59.518Z,8.57
2023-04-20T23:57:21.430Z,7.25
